createdAt,value
2023-04-20T00:02:45.335Z,1.90
2023-04-20T00:07:41.420Z,2.15
2023-04-20T00:10:08.420Z,2.28
2023-04-20T00:12:34.763Z,2.15
2023-04-20T00:15:01.184Z,2.05
2023-04-20T00:17:27.635Z,2.13
2023-04-20T00:19:54.051Z,2.30
2023-04-20T00:22:20.363Z,2.03
2023-04-20T00:24:46.773Z,2.33
2023-04-20T00:27:13.175Z,1.75
2023-04-20T00:29:39.520Z,2.40
2023-04-20T00:32:06.292Z,2.33
2023-04-20T00:37:00.479Z,2.28
2023-04-20T00:39:26.885Z,2.42
2023-04-20T00:41:54.095Z,2.08
2023-04-20T00:44:20.735Z,2.10
2023-04-20T00:46:47.279Z,2.53
2023-04-20T00:49:13.677Z,3.05
2023-04-20T00:51:40.073Z,2.40
2023-04-20T00:54:06.888Z,2.40
2023-04-20T00:58:59.816Z,2.75
2023-04-20T01:01:26.309Z,2.38
2023-04-20T01:03:53.626Z,2.60
2023-04-20T01:06:21.170Z,2.58
2023-04-20T01:11:14.339Z,2.88
2023-04-20T01:13:40.723Z,2.60
2023-04-20T01:16:07.894Z,3.10
2023-04-20T01:18:49.149Z,2.58
2023-04-20T01:21:17.332Z,3.10
2023-04-20T01:23:44.133Z,3.22
2023-04-20T01:28:36.902Z,2.70
2023-04-20T01:31:03.978Z,2.60
2023-04-20T01:33:31.796Z,2.70
2023-04-20T01:35:58.161Z,2.65
2023-04-20T01:38:25.248Z,2.58
2023-04-20T01:40:52.688Z,2.85
2023-04-20T01:43:20.673Z,2.75
2023-04-20T01:45:47.056Z,2.72
2023-04-20T01:48:13.447Z,2.42
2023-04-20T01:50:39.800Z,2.55
2023-04-20T01:53:06.261Z,2.88
2023-04-20T01:55:33.159Z,2.70
2023-04-20T01:57:59.567Z,2.80
2023-04-20T02:00:25.966Z,2.90
2023-04-20T02:02:52.460Z,2.90
2023-04-20T02:05:18.846Z,2.97
2023-04-20T02:07:45.445Z,2.85
2023-04-20T02:10:11.859Z,2.85
2023-04-20T02:12:38.557Z,2.70
2023-04-20T02:15:05.691Z,3.08
2023-04-20T02:17:32.851Z,2.90
2023-04-20T02:19:59.706Z,2.95
2023-04-20T02:22:26.768Z,3.10
2023-04-20T02:27:19.447Z,3.20
2023-04-20T02:29:45.847Z,2.83
2023-04-20T02:32:13.844Z,2.90
2023-04-20T02:34:41.538Z,3.00
2023-04-20T02:37:07.842Z,3.25
2023-04-20T02:39:34.393Z,3.15
2023-04-20T02:42:01.593Z,3.75
2023-04-20T02:44:29.020Z,3.00
2023-04-20T02:46:56.090Z,2.83
2023-04-20T02:49:24.733Z,3.13
2023-04-20T02:51:51.298Z,3.08
2023-04-20T02:54:17.751Z,3.03
2023-04-20T02:56:44.551Z,3.00
2023-04-20T02:59:11.051Z,3.00
2023-04-20T03:01:57.848Z,3.05
2023-04-20T03:04:26.348Z,2.92
2023-04-20T03:07:18.402Z,3.15
2023-04-20T03:09:46.286Z,3.30
2023-04-20T03:12:12.722Z,3.10
2023-04-20T03:14:54.078Z,3.08
2023-04-20T03:17:27.293Z,2.80
2023-04-20T03:19:54.306Z,3.10
2023-04-20T03:22:20.675Z,2.88
2023-04-20T03:24:53.480Z,3.00
2023-04-20T03:27:40.460Z,2.88
2023-04-20T03:30:11.312Z,2.70
2023-04-20T03:32:38.410Z,2.80
2023-04-20T03:35:05.512Z,2.90
2023-04-20T03:37:31.862Z,2.95
2023-04-20T03:39:58.188Z,3.00
2023-04-20T03:42:24.907Z,2.88
2023-04-20T03:44:51.331Z,2.90
2023-04-20T03:47:17.713Z,2.70
2023-04-20T03:49:44.234Z,3.20
2023-04-20T03:54:37.125Z,2.65
2023-04-20T03:57:03.761Z,2.80
2023-04-20T03:59:30.382Z,2.78
2023-04-20T04:01:58.377Z,2.90
2023-04-20T04:04:26.527Z,2.80
2023-04-20T04:06:53.068Z,2.80
2023-04-20T04:09:19.565Z,2.80
2023-04-20T04:11:46.005Z,2.63
2023-04-20T04:14:14.187Z,2.70
2023-04-20T04:19:08.650Z,2.58
2023-04-20T04:21:35.394Z,2.75
2023-04-20T04:24:04.449Z,2.83
2023-04-20T04:26:36.314Z,2.78
2023-04-20T04:29:04.506Z,2.30
2023-04-20T04:31:32.800Z,2.67
2023-04-20T04:34:04.760Z,2.70
2023-04-20T04:36:39.889Z,2.60
2023-04-20T04:39:09.840Z,2.53
2023-04-20T04:41:38.415Z,2.60
2023-04-20T04:44:21.279Z,2.30
2023-04-20T04:46:48.211Z,2.55
2023-04-20T04:49:15.058Z,2.60
2023-04-20T04:54:07.679Z,2.30
2023-04-20T04:56:34.050Z,2.50
2023-04-20T04:59:00.409Z,2.72
2023-04-20T05:01:26.854Z,2.25
2023-04-20T05:03:53.489Z,2.22
2023-04-20T05:08:46.474Z,2.35
2023-04-20T05:11:12.931Z,2.58
2023-04-20T05:13:39.275Z,2.55
2023-04-20T05:16:05.803Z,2.50
2023-04-20T05:18:32.148Z,2.38
2023-04-20T05:20:58.580Z,2.60
2023-04-20T05:23:25.362Z,2.80
2023-04-20T05:25:51.872Z,2.47
2023-04-20T05:30:45.227Z,2.88
2023-04-20T05:33:14.928Z,2.50
2023-04-20T05:35:41.582Z,2.70
2023-04-20T05:38:07.979Z,2.50
2023-04-20T05:40:35.363Z,2.47
2023-04-20T05:43:01.785Z,2.83
2023-04-20T05:45:28.303Z,2.55
2023-04-20T05:47:55.800Z,2.40
2023-04-20T05:50:23.032Z,2.80
2023-04-20T05:52:49.662Z,2.67
2023-04-20T05:55:18.954Z,2.65
2023-04-20T05:57:46.400Z,2.53
2023-04-20T06:00:14.005Z,2.42
2023-04-20T06:02:41.226Z,2.40
2023-04-20T06:05:09.424Z,2.47
2023-04-20T06:07:36.656Z,2.63
2023-04-20T06:10:03.638Z,2.47
2023-04-20T06:12:30.169Z,2.63
2023-04-20T06:14:56.974Z,2.65
2023-04-20T06:22:16.739Z,2.97
2023-04-20T06:24:43.189Z,2.53
2023-04-20T06:27:09.876Z,2.40
2023-04-20T06:34:29.307Z,2.55
2023-04-20T06:36:55.631Z,2.90
2023-04-20T06:39:22.267Z,2.70
2023-04-20T06:41:48.701Z,2.83
2023-04-20T06:44:15.111Z,3.00
2023-04-20T06:46:41.850Z,2.90
2023-04-20T06:51:34.709Z,2.63
2023-04-20T06:54:01.071Z,2.50
2023-04-20T06:56:27.637Z,2.90
2023-04-20T06:58:54.208Z,2.50
2023-04-20T07:01:20.633Z,2.95
2023-04-20T07:03:47.366Z,3.22
2023-04-20T07:06:13.830Z,2.88
2023-04-20T07:08:40.248Z,2.78
2023-04-20T07:11:06.604Z,3.00
2023-04-20T07:13:33.977Z,2.80
2023-04-20T07:16:00.573Z,2.75
2023-04-20T07:18:26.899Z,3.10
2023-04-20T07:20:53.281Z,2.50
2023-04-20T07:23:20.292Z,2.92
2023-04-20T07:25:46.720Z,2.95
2023-04-20T07:28:13.107Z,3.45
2023-04-20T07:30:39.467Z,3.15
2023-04-20T07:33:05.960Z,2.88
2023-04-20T07:35:32.402Z,2.88
2023-04-20T07:37:58.950Z,3.20
2023-04-20T07:40:25.693Z,3.05
2023-04-20T07:42:52.002Z,2.90
2023-04-20T07:45:18.354Z,2.92
2023-04-20T07:47:47.066Z,3.20
2023-04-20T07:50:13.421Z,3.00
2023-04-20T07:52:39.732Z,3.55
2023-04-20T07:55:08.053Z,3.40
2023-04-20T07:57:34.722Z,3.38
2023-04-20T08:00:01.057Z,3.30
2023-04-20T08:02:27.520Z,3.17
2023-04-20T08:04:54.226Z,2.90
2023-04-20T08:07:24.093Z,3.30
2023-04-20T08:09:50.617Z,3.13
2023-04-20T08:12:16.904Z,2.65
2023-04-20T08:14:43.332Z,2.83
2023-04-20T08:17:09.711Z,3.20
2023-04-20T08:19:36.239Z,3.20
2023-04-20T08:22:03.471Z,2.95
2023-04-20T08:24:30.057Z,3.10
2023-04-20T08:26:56.570Z,3.22
2023-04-20T08:29:22.958Z,3.13
2023-04-20T08:31:51.362Z,3.00
2023-04-20T08:34:18.182Z,3.17
2023-04-20T08:36:45.034Z,3.10
2023-04-20T08:39:12.907Z,3.05
2023-04-20T08:41:39.280Z,3.00
2023-04-20T08:44:06.922Z,3.13
2023-04-20T08:46:33.581Z,3.50
2023-04-20T08:53:52.689Z,3.83
2023-04-20T08:56:19.069Z,3.35
2023-04-20T08:58:45.662Z,3.88
2023-04-20T09:01:15.500Z,3.78
2023-04-20T09:03:44.453Z,3.78
2023-04-20T09:06:15.336Z,3.70
2023-04-20T09:08:42.292Z,3.80
2023-04-20T09:11:20.527Z,3.60
2023-04-20T09:13:59.298Z,3.80
2023-04-20T09:16:26.007Z,4.03
2023-04-20T09:21:18.975Z,4.13
2023-04-20T09:23:55.491Z,4.50
2023-04-20T09:28:48.015Z,4.43
2023-04-20T09:31:18.606Z,4.25
2023-04-20T09:33:44.956Z,4.07
2023-04-20T09:36:11.738Z,4.30
2023-04-20T09:38:38.150Z,4.15
2023-04-20T09:41:04.790Z,3.88
2023-04-20T09:50:51.504Z,3.95
2023-04-20T09:53:18.936Z,3.70
2023-04-20T09:55:49.478Z,3.50
2023-04-20T09:58:17.951Z,4.00
2023-04-20T10:00:44.326Z,4.10
2023-04-20T10:03:11.523Z,3.92
2023-04-20T10:05:39.890Z,4.10
2023-04-20T10:08:06.544Z,3.78
2023-04-20T10:15:35.962Z,4.00
2023-04-20T10:18:02.433Z,4.00
2023-04-20T10:20:29.462Z,4.57
2023-04-20T10:23:07.947Z,3.92
2023-04-20T10:25:34.292Z,4.40
2023-04-20T10:28:04.460Z,4.40
2023-04-20T10:30:31.550Z,4.15
2023-04-20T10:33:11.156Z,4.47
2023-04-20T10:35:56.237Z,4.53
2023-04-20T10:38:30.222Z,4.25
2023-04-20T10:40:56.595Z,5.13
2023-04-20T10:43:23.048Z,4.20
2023-04-20T10:45:50.001Z,3.90
2023-04-20T10:48:17.925Z,4.80
2023-04-20T10:50:44.827Z,4.45
2023-04-20T10:53:22.273Z,4.63
2023-04-20T10:55:58.044Z,4.32
2023-04-20T10:58:24.808Z,4.22
2023-04-20T11:03:17.442Z,4.32
2023-04-20T11:05:43.765Z,3.85
2023-04-20T11:08:10.152Z,4.50
2023-04-20T11:10:37.925Z,3.63
2023-04-20T11:13:04.201Z,4.05
2023-04-20T11:15:31.021Z,4.43
2023-04-20T11:18:05.947Z,3.72
2023-04-20T11:20:32.423Z,3.63
2023-04-20T11:22:59.659Z,3.67
2023-04-20T11:25:26.856Z,3.47
2023-04-20T11:27:53.275Z,3.47
2023-04-20T11:30:19.589Z,3.47
2023-04-20T11:32:53.500Z,3.00
2023-04-20T11:35:19.917Z,3.60
2023-04-20T11:37:47.661Z,3.53
2023-04-20T11:40:14.940Z,3.75
2023-04-20T11:42:41.362Z,3.10
2023-04-20T11:45:08.275Z,3.42
2023-04-20T11:47:34.609Z,3.47
2023-04-20T11:50:01.552Z,3.30
2023-04-20T11:52:27.879Z,3.90
2023-04-20T11:54:54.260Z,3.10
2023-04-20T11:57:23.600Z,3.67
2023-04-20T11:59:49.992Z,3.33
2023-04-20T12:02:16.396Z,3.70
2023-04-20T12:04:48.805Z,3.58
2023-04-20T12:07:15.396Z,3.33
2023-04-20T12:09:41.801Z,3.28
2023-04-20T12:12:09.781Z,3.58
2023-04-20T12:14:36.560Z,3.47
2023-04-20T12:17:04.111Z,3.70
2023-04-20T12:19:30.898Z,3.75
2023-04-20T12:21:57.406Z,3.55
2023-04-20T12:24:24.307Z,3.67
2023-04-20T12:26:51.494Z,3.92
2023-04-20T12:29:18.125Z,3.55
2023-04-20T12:34:11.667Z,3.80
2023-04-20T12:36:38.125Z,4.30
2023-04-20T12:39:04.536Z,3.92
2023-04-20T12:41:31.084Z,4.10
2023-04-20T12:43:57.569Z,4.30
2023-04-20T12:46:23.963Z,3.78
2023-04-20T12:48:50.539Z,4.18
2023-04-20T12:51:16.943Z,4.03
2023-04-20T12:53:43.245Z,4.00
2023-04-20T12:56:09.674Z,4.00
2023-04-20T12:58:37.048Z,3.63
2023-04-20T13:01:03.525Z,4.47
2023-04-20T13:10:48.956Z,4.03
2023-04-20T13:13:15.344Z,4.60
2023-04-20T13:15:41.652Z,4.35
2023-04-20T13:18:09.715Z,4.50
2023-04-20T13:20:36.428Z,4.90
2023-04-20T13:23:03.028Z,4.40
2023-04-20T13:25:30.004Z,4.53
2023-04-20T13:27:56.315Z,4.70
2023-04-20T13:30:24.497Z,4.60
2023-04-20T13:32:51.241Z,4.05
2023-04-20T13:37:44.866Z,4.70
2023-04-20T13:40:11.524Z,4.57
2023-04-20T13:52:23.102Z,4.32
2023-04-20T13:54:49.473Z,4.53
2023-04-20T13:57:16.071Z,4.97
2023-04-20T14:02:08.926Z,4.88
2023-04-20T14:04:35.381Z,4.65
2023-04-20T14:07:01.774Z,5.45
2023-04-20T14:09:29.728Z,5.10
2023-04-20T14:11:57.309Z,4.88
2023-04-20T14:14:24.559Z,5.10
2023-04-20T14:16:51.056Z,4.60
2023-04-20T14:19:17.499Z,4.97
2023-04-20T14:21:47.318Z,5.38
2023-04-20T14:24:14.157Z,4.68
2023-04-20T14:26:41.265Z,5.18
2023-04-20T14:29:07.639Z,5.30
2023-04-20T14:31:34.999Z,4.80
2023-04-20T14:34:01.469Z,4.78
2023-04-20T14:36:27.928Z,5.70
2023-04-20T14:38:55.445Z,4.45
2023-04-20T14:41:22.157Z,5.90
2023-04-20T14:43:48.655Z,5.45
2023-04-20T14:48:41.360Z,5.07
2023-04-20T14:51:07.742Z,5.45
2023-04-20T14:53:34.069Z,5.55
2023-04-20T14:56:00.373Z,5.68
2023-04-20T14:58:26.732Z,5.13
2023-04-20T15:00:53.981Z,5.35
2023-04-20T15:03:20.616Z,5.35
2023-04-20T15:05:47.489Z,5.55
2023-04-20T15:08:13.932Z,5.45
2023-04-20T15:10:40.405Z,4.85
2023-04-20T15:18:13.623Z,5.60
2023-04-20T15:20:39.918Z,5.70
2023-04-20T15:23:06.400Z,5.65
2023-04-20T15:25:33.011Z,5.00
2023-04-20T15:40:11.323Z,5.45
2023-04-20T15:42:37.944Z,5.70
2023-04-20T15:50:01.293Z,5.32
2023-04-20T15:52:28.895Z,5.90
2023-04-20T15:54:55.267Z,5.82
2023-04-20T15:57:21.634Z,5.78
2023-04-20T15:59:47.979Z,5.30
2023-04-20T16:02:14.322Z,5.90
2023-04-20T16:04:40.810Z,5.80
2023-04-20T16:07:08.751Z,5.82
2023-04-20T16:09:35.460Z,5.50
2023-04-20T16:12:02.946Z,6.22
2023-04-20T16:14:29.449Z,5.63
2023-04-20T16:16:56.127Z,5.95
2023-04-20T16:26:41.419Z,4.90
2023-04-20T16:29:07.885Z,5.40
2023-04-20T16:31:36.660Z,5.15
2023-04-20T16:34:03.521Z,4.60
2023-04-20T16:36:30.015Z,5.40
2023-04-20T16:38:56.859Z,6.00
2023-04-20T16:41:23.322Z,5.63
2023-04-20T16:43:49.592Z,6.13
2023-04-20T16:46:22.070Z,5.95
2023-04-20T16:48:48.817Z,5.50
2023-04-20T16:51:15.161Z,6.63
2023-04-20T16:53:41.532Z,7.13
2023-04-20T16:56:10.247Z,5.97
2023-04-20T16:58:40.568Z,5.65
2023-04-20T17:01:07.463Z,6.90
2023-04-20T17:03:34.401Z,6.72
2023-04-20T17:06:07.181Z,8.50
2023-04-20T17:08:34.592Z,7.25
2023-04-20T17:11:01.882Z,7.10
2023-04-20T17:13:28.401Z,6.40
2023-04-20T17:15:54.788Z,16.38
2023-04-20T17:18:21.215Z,15.35
2023-04-20T17:20:47.952Z,9.43
2023-04-20T17:25:42.145Z,8.43
2023-04-20T17:28:08.932Z,9.52
2023-04-20T17:30:35.492Z,7.35
2023-04-20T17:33:01.856Z,11.82
2023-04-20T17:35:28.871Z,7.20
2023-04-20T17:37:55.375Z,14.55
2023-04-20T17:40:21.795Z,14.45
2023-04-20T17:42:48.129Z,8.68
2023-04-20T17:45:14.448Z,11.30
2023-04-20T17:47:40.944Z,7.85
2023-04-20T17:50:07.754Z,9.68
2023-04-20T17:52:35.118Z,10.98
2023-04-20T17:55:02.026Z,8.48
2023-04-20T17:57:31.388Z,6.97
2023-04-20T17:59:57.716Z,15.65
2023-04-20T18:02:24.786Z,12.27
2023-04-20T18:04:51.490Z,12.23
2023-04-20T18:09:45.017Z,10.50
2023-04-20T18:12:11.500Z,9.88
2023-04-20T18:14:39.148Z,12.00
2023-04-20T18:17:05.559Z,14.50
2023-04-20T18:19:35.489Z,8.73
2023-04-20T18:22:01.921Z,14.27
2023-04-20T18:24:28.387Z,15.10
2023-04-20T18:26:54.750Z,15.23
2023-04-20T18:29:21.441Z,8.02
2023-04-20T18:34:16.626Z,7.00
2023-04-20T18:36:43.189Z,8.00
2023-04-20T18:39:09.648Z,7.03
2023-04-20T18:41:36.821Z,7.10
2023-04-20T18:44:03.576Z,10.50
2023-04-20T18:46:30.053Z,12.25
2023-04-20T18:48:56.475Z,7.80
2023-04-20T18:51:23.540Z,8.15
2023-04-20T18:53:49.967Z,13.13
2023-04-20T18:56:16.287Z,13.27
2023-04-20T18:58:42.679Z,8.88
2023-04-20T19:01:09.156Z,9.65
2023-04-20T19:03:35.781Z,10.13
2023-04-20T19:10:57.260Z,8.63
2023-04-20T19:13:23.775Z,15.65
2023-04-20T19:15:50.964Z,17.67
2023-04-20T19:18:17.457Z,10.63
2023-04-20T19:20:43.836Z,11.93
2023-04-20T19:23:10.667Z,9.32
2023-04-20T19:25:38.085Z,27.30
2023-04-20T19:28:04.586Z,15.57
2023-04-20T19:30:31.007Z,10.50
2023-04-20T19:32:57.560Z,10.07
2023-04-20T19:35:24.002Z,9.32
2023-04-20T19:37:50.419Z,7.85
2023-04-20T19:40:16.787Z,9.38
2023-04-20T19:42:43.261Z,8.50
2023-04-20T19:45:09.877Z,10.10
2023-04-20T19:50:04.083Z,8.25
2023-04-20T19:52:30.846Z,12.20
2023-04-20T19:54:57.244Z,14.65
2023-04-20T19:57:23.616Z,7.70
2023-04-20T19:59:49.927Z,13.43
2023-04-20T20:02:16.418Z,14.55
2023-04-20T20:04:44.626Z,11.05
2023-04-20T20:07:11.272Z,11.23
2023-04-20T20:09:37.588Z,14.55
2023-04-20T20:12:04.800Z,12.68
2023-04-20T20:14:31.383Z,10.88
2023-04-20T20:16:57.828Z,9.13
2023-04-20T20:19:24.118Z,8.48
2023-04-20T20:21:51.178Z,9.23
2023-04-20T20:24:17.764Z,16.75
2023-04-20T20:26:44.205Z,13.45
2023-04-20T20:29:10.548Z,15.57
2023-04-20T20:31:36.913Z,9.25
2023-04-20T20:34:03.195Z,16.90
2023-04-20T20:36:32.050Z,8.80
2023-04-20T20:38:59.130Z,9.07
2023-04-20T20:41:26.196Z,14.20
2023-04-20T20:43:54.733Z,10.93
2023-04-20T20:46:21.212Z,9.98
2023-04-20T20:48:47.523Z,9.95
2023-04-20T20:51:16.059Z,13.02
2023-04-20T20:53:42.389Z,13.82
2023-04-20T20:56:08.760Z,9.43
2023-04-20T20:58:35.110Z,11.93
2023-04-20T21:01:01.491Z,12.13
2023-04-20T21:03:28.057Z,10.20
2023-04-20T21:08:20.832Z,13.40
2023-04-20T21:10:47.210Z,12.70
2023-04-20T21:13:13.498Z,11.05
2023-04-20T21:15:39.827Z,11.82
2023-04-20T21:18:06.129Z,20.88
2023-04-20T21:20:33.172Z,16.33
2023-04-20T21:22:59.445Z,16.55
2023-04-20T21:25:25.767Z,21.23
2023-04-20T21:27:52.040Z,30.77
2023-04-20T21:30:18.367Z,17.20
2023-04-20T21:32:44.649Z,16.27
2023-04-20T21:35:11.390Z,9.82
2023-04-20T21:40:04.441Z,9.40
2023-04-20T21:42:30.755Z,9.38
2023-04-20T21:44:57.092Z,9.77
2023-04-20T21:47:23.483Z,9.18
2023-04-20T21:49:49.808Z,10.57
2023-04-20T21:52:16.152Z,10.07
2023-04-20T21:54:42.510Z,9.68
2023-04-20T21:57:08.892Z,9.93
2023-04-20T21:59:35.324Z,9.82
2023-04-20T22:02:02.039Z,10.35
2023-04-20T22:09:22.069Z,9.85
2023-04-20T22:14:16.885Z,10.20
2023-04-20T22:16:43.300Z,10.23
2023-04-20T22:19:09.626Z,10.60
2023-04-20T22:21:35.913Z,10.02
2023-04-20T22:24:02.290Z,10.38
2023-04-20T22:26:28.572Z,10.90
2023-04-20T22:28:54.848Z,10.90
2023-04-20T22:31:21.207Z,11.95
2023-04-20T22:33:47.601Z,10.75
2023-04-20T22:36:14.006Z,10.68
2023-04-20T22:38:40.369Z,11.00
2023-04-20T22:41:06.688Z,10.98
2023-04-20T22:43:33.040Z,11.48
2023-04-20T22:48:26.614Z,11.35
2023-04-20T22:50:53.384Z,11.43
2023-04-20T22:53:19.700Z,11.70
2023-04-20T22:55:46.210Z,11.77
2023-04-20T22:58:12.590Z,11.70
2023-04-20T23:00:39.024Z,11.93
2023-04-20T23:03:05.620Z,11.35
2023-04-20T23:05:32.052Z,11.80
2023-04-20T23:08:00.378Z,11.45
2023-04-20T23:10:28.438Z,12.25
2023-04-20T23:12:55.385Z,11.57
2023-04-20T23:17:48.331Z,11.85
2023-04-20T23:20:15.078Z,12.43
2023-04-20T23:25:09.510Z,11.20
2023-04-20T23:27:35.892Z,11.95
2023-04-20T23:30:02.240Z,11.57
2023-04-20T23:32:28.581Z,11.65
2023-04-20T23:34:54.918Z,13.10
2023-04-20T23:37:21.281Z,12.82
2023-04-20T23:39:47.629Z,12.07
2023-04-20T23:42:13.939Z,11.82
2023-04-20T23:44:40.366Z,12.77
2023-04-20T23:47:06.636Z,13.10
2023-04-20T23:49:32.946Z,13.20
2023-04-20T23:51:59.229Z,13.23
2023-04-20T23:54:25.512Z,13.18
2023-04-20T23:56:51.868Z,12.90
2023-04-20T23:59:18.357Z,12.15
